sensor_id;sensor_type;location;lat;lon;timestamp;pressure;altitude;pressure_sealevel;temperature;humidity
40794;BME280;26502;51.886;15.604;2023-12-14T00:00:52;99564.91;;;4.72;92.68
40794;BME280;26502;51.886;15.604;2023-12-14T00:06:18;99572.68;;;4.70;92.67
40794;BME280;26502;51.886;15.604;2023-12-14T00:11:45;99581.67;;;4.69;92.72
40794;BME280;26502;51.886;15.604;2023-12-14T00:17:11;99590.81;;;4.69;92.86
40794;BME280;26502;51.886;15.604;2023-12-14T00:22:37;99595.58;;;4.69;92.73
40794;BME280;26502;51.886;15.604;2023-12-14T00:28:04;99601.39;;;4.68;92.67
40794;BME280;26502;51.886;15.604;2023-12-14T00:33:32;99611.17;;;4.71;92.67
40794;BME280;26502;51.886;15.604;2023-12-14T00:38:59;99615.64;;;4.75;92.73
40794;BME280;26502;51.886;15.604;2023-12-14T00:44:25;99624.38;;;4.78;92.60
40794;BME280;26502;51.886;15.604;2023-12-14T00:49:51;99632.95;;;4.79;92.65
40794;BME280;26502;51.886;15.604;2023-12-14T00:55:18;99640.42;;;4.83;92.60
40794;BME280;26502;51.886;15.604;2023-12-14T01:00:44;99644.21;;;4.86;92.49
40794;BME280;26502;51.886;15.604;2023-12-14T01:06:10;99652.85;;;4.86;92.40
40794;BME280;26502;51.886;15.604;2023-12-14T01:11:36;99658.56;;;4.83;92.26
40794;BME280;26502;51.886;15.604;2023-12-14T01:17:02;99664.31;;;4.77;92.30
40794;BME280;26502;51.886;15.604;2023-12-14T01:22:28;99668.96;;;4.74;92.39
40794;BME280;26502;51.886;15.604;2023-12-14T01:27:56;99667.92;;;4.73;92.20
40794;BME280;26502;51.886;15.604;2023-12-14T01:33:22;99666.73;;;4.72;92.35
40794;BME280;26502;51.886;15.604;2023-12-14T01:38:50;99675.39;;;4.70;92.29
40794;BME280;26502;51.886;15.604;2023-12-14T01:44:16;99675.02;;;4.64;92.32
40794;BME280;26502;51.886;15.604;2023-12-14T01:49:43;99675.58;;;4.62;92.34
40794;BME280;26502;51.886;15.604;2023-12-14T01:55:09;99681.54;;;4.64;92.43
40794;BME280;26502;51.886;15.604;2023-12-14T02:00:39;99680.39;;;4.60;92.19
40794;BME280;26502;51.886;15.604;2023-12-14T02:06:07;99689.70;;;4.53;92.19
40794;BME280;26502;51.886;15.604;2023-12-14T02:11:34;99691.34;;;4.43;92.10
40794;BME280;26502;51.886;15.604;2023-12-14T02:17:00;99693.06;;;4.37;92.13
40794;BME280;26502;51.886;15.604;2023-12-14T02:22:26;99700.27;;;4.29;91.99
40794;BME280;26502;51.886;15.604;2023-12-14T02:27:53;99705.52;;;4.21;91.91
40794;BME280;26502;51.886;15.604;2023-12-14T02:33:19;99713.23;;;4.14;91.93
40794;BME280;26502;51.886;15.604;2023-12-14T02:38:48;99722.42;;;4.11;91.89
40794;BME280;26502;51.886;15.604;2023-12-14T02:44:14;99721.70;;;4.05;91.81
40794;BME280;26502;51.886;15.604;2023-12-14T02:49:41;99734.73;;;4.03;91.89
40794;BME280;26502;51.886;15.604;2023-12-14T02:55:08;99740.03;;;4.01;91.82
40794;BME280;26502;51.886;15.604;2023-12-14T03:00:34;99748.89;;;3.98;91.80
40794;BME280;26502;51.886;15.604;2023-12-14T03:06:00;99761.05;;;3.96;91.76
40794;BME280;26502;51.886;15.604;2023-12-14T03:11:27;99764.02;;;3.97;91.77
40794;BME280;26502;51.886;15.604;2023-12-14T03:16:53;99772.42;;;3.99;91.79
40794;BME280;26502;51.886;15.604;2023-12-14T03:22:19;99775.98;;;4.05;91.92
40794;BME280;26502;51.886;15.604;2023-12-14T03:27:46;99786.52;;;4.05;91.88
40794;BME280;26502;51.886;15.604;2023-12-14T03:33:12;99792.83;;;3.97;91.84
40794;BME280;26502;51.886;15.604;2023-12-14T03:38:38;99792.20;;;3.93;91.83
40794;BME280;26502;51.886;15.604;2023-12-14T03:44:05;99801.36;;;3.92;92.00
40794;BME280;26502;51.886;15.604;2023-12-14T03:49:32;99813.70;;;3.90;92.00
40794;BME280;26502;51.886;15.604;2023-12-14T03:55:02;99821.34;;;3.85;91.83
40794;BME280;26502;51.886;15.604;2023-12-14T04:00:29;99828.96;;;3.81;91.78
40794;BME280;26502;51.886;15.604;2023-12-14T04:05:55;99839.89;;;3.80;91.83
40794;BME280;26502;51.886;15.604;2023-12-14T04:11:21;99843.67;;;3.84;91.92
40794;BME280;26502;51.886;15.604;2023-12-14T04:16:47;99846.88;;;3.82;91.68
40794;BME280;26502;51.886;15.604;2023-12-14T04:22:15;99855.86;;;3.80;91.71
40794;BME280;26502;51.886;15.604;2023-12-14T04:27:41;99858.62;;;3.84;91.83
40794;BME280;26502;51.886;15.604;2023-12-14T04:33:08;99863.29;;;3.87;91.75
40794;BME280;26502;51.886;15.604;2023-12-14T04:38:35;99870.18;;;3.84;91.71
40794;BME280;26502;51.886;15.604;2023-12-14T04:44:01;99873.14;;;3.87;91.67
40794;BME280;26502;51.886;15.604;2023-12-14T04:49:28;99878.88;;;3.89;91.76
40794;BME280;26502;51.886;15.604;2023-12-14T04:54:54;99884.29;;;3.91;91.72
40794;BME280;26502;51.886;15.604;2023-12-14T05:00:20;99889.41;;;3.90;91.73
40794;BME280;26502;51.886;15.604;2023-12-14T05:05:46;99895.42;;;3.88;91.65
40794;BME280;26502;51.886;15.604;2023-12-14T05:11:14;99902.48;;;3.87;91.68
40794;BME280;26502;51.886;15.604;2023-12-14T05:16:40;99913.48;;;3.89;91.84
40794;BME280;26502;51.886;15.604;2023-12-14T05:22:06;99918.20;;;3.80;91.62
40794;BME280;26502;51.886;15.604;2023-12-14T05:27:32;99923.36;;;3.76;91.72
40794;BME280;26502;51.886;15.604;2023-12-14T05:33:00;99935.14;;;3.75;91.77
40794;BME280;26502;51.886;15.604;2023-12-14T05:38:27;99947.13;;;3.74;91.80
40794;BME280;26502;51.886;15.604;2023-12-14T05:43:53;99962.42;;;3.72;91.76
40794;BME280;26502;51.886;15.604;2023-12-14T05:49:19;99972.64;;;3.70;91.74
40794;BME280;26502;51.886;15.604;2023-12-14T05:54:45;99975.63;;;3.70;91.71
40794;BME280;26502;51.886;15.604;2023-12-14T06:00:16;99987.98;;;3.67;91.68
40794;BME280;26502;51.886;15.604;2023-12-14T06:05:43;99994.86;;;3.64;91.73
40794;BME280;26502;51.886;15.604;2023-12-14T06:11:09;100003.27;;;3.66;91.79
40794;BME280;26502;51.886;15.604;2023-12-14T06:16:35;100009.20;;;3.67;91.79
40794;BME280;26502;51.886;15.604;2023-12-14T06:22:01;100019.89;;;3.69;91.80
40794;BME280;26502;51.886;15.604;2023-12-14T06:27:27;100027.45;;;3.69;91.70
40794;BME280;26502;51.886;15.604;2023-12-14T06:32:55;100031.10;;;3.73;91.82
40794;BME280;26502;51.886;15.604;2023-12-14T06:38:22;100036.71;;;3.72;91.67
40794;BME280;26502;51.886;15.604;2023-12-14T06:43:48;100049.87;;;3.72;91.69
40794;BME280;26502;51.886;15.604;2023-12-14T06:49:16;100053.95;;;3.70;91.63
40794;BME280;26502;51.886;15.604;2023-12-14T06:54:42;100065.25;;;3.66;91.61
40794;BME280;26502;51.886;15.604;2023-12-14T07:00:12;100069.48;;;3.64;91.71
40794;BME280;26502;51.886;15.604;2023-12-14T07:05:39;100069.12;;;3.66;91.76
40794;BME280;26502;51.886;15.604;2023-12-14T07:11:06;100077.70;;;3.67;91.87
40794;BME280;26502;51.886;15.604;2023-12-14T07:16:32;100088.89;;;3.71;91.87
40794;BME280;26502;51.886;15.604;2023-12-14T07:21:58;100101.50;;;3.73;91.78
40794;BME280;26502;51.886;15.604;2023-12-14T07:27:24;100107.64;;;3.74;91.77
40794;BME280;26502;51.886;15.604;2023-12-14T07:32:51;100110.79;;;3.75;91.71
40794;BME280;26502;51.886;15.604;2023-12-14T07:38:17;100117.52;;;3.71;91.77
40794;BME280;26502;51.886;15.604;2023-12-14T07:43:45;100132.73;;;3.76;91.90
40794;BME280;26502;51.886;15.604;2023-12-14T07:49:11;100151.48;;;3.78;91.99
40794;BME280;26502;51.886;15.604;2023-12-14T07:54:37;100162.38;;;3.78;91.85
40794;BME280;26502;51.886;15.604;2023-12-14T08:00:05;100174.74;;;3.73;91.71
40794;BME280;26502;51.886;15.604;2023-12-14T08:05:33;100188.48;;;3.70;91.75
40794;BME280;26502;51.886;15.604;2023-12-14T08:10:59;100195.53;;;3.68;91.78
40794;BME280;26502;51.886;15.604;2023-12-14T08:16:25;100204.33;;;3.66;91.76
40794;BME280;26502;51.886;15.604;2023-12-14T08:21:52;100214.65;;;3.70;91.83
40794;BME280;26502;51.886;15.604;2023-12-14T08:27:22;100226.27;;;3.67;91.64
40794;BME280;26502;51.886;15.604;2023-12-14T08:32:48;100234.40;;;3.61;91.51
40794;BME280;26502;51.886;15.604;2023-12-14T08:38:14;100247.48;;;3.52;91.43
40794;BME280;26502;51.886;15.604;2023-12-14T08:43:41;100254.38;;;3.49;91.36
40794;BME280;26502;51.886;15.604;2023-12-14T08:49:07;100263.02;;;3.47;91.40
40794;BME280;26502;51.886;15.604;2023-12-14T08:54:33;100276.13;;;3.51;91.54
40794;BME280;26502;51.886;15.604;2023-12-14T09:00:00;100291.90;;;3.53;91.41
40794;BME280;26502;51.886;15.604;2023-12-14T09:05:26;100295.63;;;3.49;91.23
40794;BME280;26502;51.886;15.604;2023-12-14T09:10:52;100300.04;;;3.47;91.29
40794;BME280;26502;51.886;15.604;2023-12-14T09:16:19;100309.69;;;3.48;91.22
40794;BME280;26502;51.886;15.604;2023-12-14T09:21:45;100318.64;;;3.49;91.08
40794;BME280;26502;51.886;15.604;2023-12-14T09:27:13;100335.13;;;3.51;91.09
40794;BME280;26502;51.886;15.604;2023-12-14T09:32:40;100347.66;;;3.41;90.83
40794;BME280;26502;51.886;15.604;2023-12-14T09:38:07;100349.27;;;3.39;90.79
40794;BME280;26502;51.886;15.604;2023-12-14T09:43:34;100358.25;;;3.36;90.80
40794;BME280;26502;51.886;15.604;2023-12-14T09:49:03;100365.91;;;3.42;91.07
40794;BME280;26502;51.886;15.604;2023-12-14T09:54:29;100369.73;;;3.49;91.13
40794;BME280;26502;51.886;15.604;2023-12-14T09:59:56;100363.11;;;3.42;90.85
40794;BME280;26502;51.886;15.604;2023-12-14T10:05:22;100375.97;;;3.36;90.70
40794;BME280;26502;51.886;15.604;2023-12-14T10:10:50;100381.29;;;3.30;90.57
40794;BME280;26502;51.886;15.604;2023-12-14T10:16:29;100392.41;;;3.19;90.31
40794;BME280;26502;51.886;15.604;2023-12-14T10:21:56;100397.37;;;3.14;90.37
40794;BME280;26502;51.886;15.604;2023-12-14T10:27:25;100399.46;;;3.16;90.37
40794;BME280;26502;51.886;15.604;2023-12-14T10:32:51;100402.95;;;3.17;90.24
40794;BME280;26502;51.886;15.604;2023-12-14T10:38:18;100403.35;;;3.12;89.99
40794;BME280;26502;51.886;15.604;2023-12-14T10:43:46;100410.39;;;3.06;90.04
40794;BME280;26502;51.886;15.604;2023-12-14T10:49:14;100418.98;;;3.08;90.04
40794;BME280;26502;51.886;15.604;2023-12-14T10:54:41;100421.27;;;3.08;90.08
40794;BME280;26502;51.886;15.604;2023-12-14T11:00:09;100425.64;;;3.11;90.00
40794;BME280;26502;51.886;15.604;2023-12-14T11:05:37;100427.52;;;3.17;90.03
40794;BME280;26502;51.886;15.604;2023-12-14T11:11:07;100434.89;;;3.19;89.93
40794;BME280;26502;51.886;15.604;2023-12-14T11:16:35;100437.67;;;3.22;89.93
40794;BME280;26502;51.886;15.604;2023-12-14T11:22:24;100453.61;;;3.27;89.87
40794;BME280;26502;51.886;15.604;2023-12-14T11:27:51;100466.16;;;3.11;89.54
40794;BME280;26502;51.886;15.604;2023-12-14T11:33:18;100475.98;;;3.11;89.74
40794;BME280;26502;51.886;15.604;2023-12-14T11:38:44;100479.66;;;3.16;89.76
40794;BME280;26502;51.886;15.604;2023-12-14T11:44:24;100480.67;;;3.21;89.78
40794;BME280;26502;51.886;15.604;2023-12-14T11:49:51;100487.66;;;3.28;89.67
40794;BME280;26502;51.886;15.604;2023-12-14T11:55:17;100483.79;;;3.30;89.61
40794;BME280;26502;51.886;15.604;2023-12-14T12:00:45;100481.70;;;3.27;89.47
40794;BME280;26502;51.886;15.604;2023-12-14T12:06:21;100494.51;;;3.28;89.44
40794;BME280;26502;51.886;15.604;2023-12-14T12:11:48;100502.60;;;3.22;89.32
40794;BME280;26502;51.886;15.604;2023-12-14T12:17:14;100511.93;;;3.19;89.31
40794;BME280;26502;51.886;15.604;2023-12-14T12:22:40;100518.09;;;3.12;89.29
40794;BME280;26502;51.886;15.604;2023-12-14T12:28:06;100518.12;;;3.09;89.32
40794;BME280;26502;51.886;15.604;2023-12-14T12:33:32;100526.54;;;3.09;89.40
40794;BME280;26502;51.886;15.604;2023-12-14T12:39:02;100528.81;;;3.10;89.15
40794;BME280;26502;51.886;15.604;2023-12-14T12:44:30;100539.52;;;3.13;89.22
40794;BME280;26502;51.886;15.604;2023-12-14T12:49:57;100539.15;;;3.14;89.09
40794;BME280;26502;51.886;15.604;2023-12-14T12:55:23;100547.75;;;3.13;88.98
40794;BME280;26502;51.886;15.604;2023-12-14T13:00:49;100552.13;;;3.15;89.02
40794;BME280;26502;51.886;15.604;2023-12-14T13:06:15;100563.89;;;3.15;88.82
40794;BME280;26502;51.886;15.604;2023-12-14T13:11:43;100565.99;;;3.15;88.92
40794;BME280;26502;51.886;15.604;2023-12-14T13:17:09;100572.11;;;3.23;89.21
40794;BME280;26502;51.886;15.604;2023-12-14T13:22:35;100579.48;;;3.20;89.03
40794;BME280;26502;51.886;15.604;2023-12-14T13:28:02;100592.11;;;3.22;89.12
40794;BME280;26502;51.886;15.604;2023-12-14T13:33:28;100600.52;;;3.24;89.14
40794;BME280;26502;51.886;15.604;2023-12-14T13:38:54;100606.13;;;3.30;89.22
40794;BME280;26502;51.886;15.604;2023-12-14T13:44:21;100615.55;;;3.44;89.39
40794;BME280;26502;51.886;15.604;2023-12-14T13:49:47;100627.98;;;3.52;89.43
40794;BME280;26502;51.886;15.604;2023-12-14T13:55:13;100644.09;;;3.63;89.40
40794;BME280;26502;51.886;15.604;2023-12-14T14:00:39;100651.10;;;3.67;89.15
40794;BME280;26502;51.886;15.604;2023-12-14T14:06:08;100661.10;;;3.67;88.98
40794;BME280;26502;51.886;15.604;2023-12-14T14:11:36;100669.38;;;3.64;88.93
40794;BME280;26502;51.886;15.604;2023-12-14T14:17:16;100681.85;;;3.63;89.03
40794;BME280;26502;51.886;15.604;2023-12-14T14:23:06;100698.73;;;3.56;88.62
40794;BME280;26502;51.886;15.604;2023-12-14T14:28:32;100702.98;;;3.43;88.48
40794;BME280;26502;51.886;15.604;2023-12-14T14:33:59;100711.96;;;3.30;88.43
40794;BME280;26502;51.886;15.604;2023-12-14T14:39:25;100719.70;;;3.26;88.83
40794;BME280;26502;51.886;15.604;2023-12-14T14:44:51;100733.56;;;3.30;89.02
40794;BME280;26502;51.886;15.604;2023-12-14T14:50:18;100739.16;;;3.38;89.32
40794;BME280;26502;51.886;15.604;2023-12-14T14:55:45;100751.79;;;3.40;89.17
40794;BME280;26502;51.886;15.604;2023-12-14T15:01:11;100769.71;;;3.40;89.13
40794;BME280;26502;51.886;15.604;2023-12-14T15:06:37;100783.91;;;3.46;89.29
40794;BME280;26502;51.886;15.604;2023-12-14T15:12:04;100793.92;;;3.44;89.12
40794;BME280;26502;51.886;15.604;2023-12-14T15:17:33;100800.77;;;3.44;88.94
40794;BME280;26502;51.886;15.604;2023-12-14T15:22:59;100815.53;;;3.45;89.12
40794;BME280;26502;51.886;15.604;2023-12-14T15:28:25;100821.48;;;3.37;88.72
40794;BME280;26502;51.886;15.604;2023-12-14T15:33:53;100830.45;;;3.25;88.72
40794;BME280;26502;51.886;15.604;2023-12-14T15:39:19;100842.21;;;3.27;89.22
40794;BME280;26502;51.886;15.604;2023-12-14T15:44:46;100851.52;;;3.28;89.12
40794;BME280;26502;51.886;15.604;2023-12-14T15:50:12;100863.80;;;3.24;88.97
40794;BME280;26502;51.886;15.604;2023-12-14T15:55:38;100880.30;;;3.43;89.74
40794;BME280;26502;51.886;15.604;2023-12-14T16:01:06;100882.94;;;3.54;89.55
40794;BME280;26502;51.886;15.604;2023-12-14T16:06:34;100893.48;;;3.42;89.01
40794;BME280;26502;51.886;15.604;2023-12-14T16:12:00;100897.68;;;3.34;88.97
40794;BME280;26502;51.886;15.604;2023-12-14T16:17:28;100908.57;;;3.39;89.33
40794;BME280;26502;51.886;15.604;2023-12-14T16:22:55;100919.64;;;3.42;89.21
40794;BME280;26502;51.886;15.604;2023-12-14T16:28:22;100924.73;;;3.44;89.38
40794;BME280;26502;51.886;15.604;2023-12-14T16:33:51;100928.42;;;3.40;89.25
40794;BME280;26502;51.886;15.604;2023-12-14T16:39:17;100936.48;;;3.38;89.11
40794;BME280;26502;51.886;15.604;2023-12-14T16:44:44;100933.67;;;3.25;88.99
40794;BME280;26502;51.886;15.604;2023-12-14T16:50:11;100936.83;;;3.25;89.18
40794;BME280;26502;51.886;15.604;2023-12-14T16:55:37;100942.80;;;3.25;89.19
40794;BME280;26502;51.886;15.604;2023-12-14T17:01:03;100952.08;;;3.21;89.07
40794;BME280;26502;51.886;15.604;2023-12-14T17:06:29;100972.08;;;3.12;88.66
40794;BME280;26502;51.886;15.604;2023-12-14T17:11:56;100979.27;;;3.13;89.01
40794;BME280;26502;51.886;15.604;2023-12-14T17:17:24;100984.71;;;3.14;89.09
40794;BME280;26502;51.886;15.604;2023-12-14T17:22:51;100993.64;;;3.12;88.94
40794;BME280;26502;51.886;15.604;2023-12-14T17:28:18;101001.70;;;3.04;88.54
40794;BME280;26502;51.886;15.604;2023-12-14T17:33:47;101015.38;;;3.02;88.90
40794;BME280;26502;51.886;15.604;2023-12-14T17:39:14;101025.71;;;2.98;88.68
40794;BME280;26502;51.886;15.604;2023-12-14T17:44:40;101038.88;;;2.99;88.92
40794;BME280;26502;51.886;15.604;2023-12-14T17:50:08;101050.97;;;2.96;88.68
40794;BME280;26502;51.886;15.604;2023-12-14T17:55:35;101057.92;;;2.84;88.43
40794;BME280;26502;51.886;15.604;2023-12-14T18:01:02;101067.09;;;2.91;88.73
40794;BME280;26502;51.886;15.604;2023-12-14T18:06:29;101068.33;;;2.92;88.73
40794;BME280;26502;51.886;15.604;2023-12-14T18:11:56;101074.81;;;2.94;88.67
40794;BME280;26502;51.886;15.604;2023-12-14T18:17:25;101082.80;;;2.79;88.12
40794;BME280;26502;51.886;15.604;2023-12-14T18:22:52;101097.55;;;2.55;87.81
40794;BME280;26502;51.886;15.604;2023-12-14T18:28:22;101106.55;;;2.40;87.91
40794;BME280;26502;51.886;15.604;2023-12-14T18:33:48;101119.83;;;2.34;88.18
40794;BME280;26502;51.886;15.604;2023-12-14T18:39:17;101131.70;;;2.28;88.09
40794;BME280;26502;51.886;15.604;2023-12-14T18:44:43;101141.98;;;2.21;88.06
40794;BME280;26502;51.886;15.604;2023-12-14T18:50:13;101148.39;;;2.33;88.73
40794;BME280;26502;51.886;15.604;2023-12-14T18:55:40;101150.30;;;2.30;88.23
40794;BME280;26502;51.886;15.604;2023-12-14T19:01:07;101158.34;;;2.10;88.08
40794;BME280;26502;51.886;15.604;2023-12-14T19:06:33;101171.80;;;2.24;88.83
40794;BME280;26502;51.886;15.604;2023-12-14T19:12:00;101182.64;;;2.41;88.94
40794;BME280;26502;51.886;15.604;2023-12-14T19:17:26;101185.77;;;2.37;88.26
40794;BME280;26502;51.886;15.604;2023-12-14T19:22:54;101186.86;;;2.06;87.84
40794;BME280;26502;51.886;15.604;2023-12-14T19:28:24;101193.27;;;2.00;88.23
40794;BME280;26502;51.886;15.604;2023-12-14T19:33:50;101191.38;;;2.20;88.93
40794;BME280;26502;51.886;15.604;2023-12-14T19:39:18;101209.77;;;2.35;88.94
40794;BME280;26502;51.886;15.604;2023-12-14T19:44:44;101215.63;;;2.43;88.78
40794;BME280;26502;51.886;15.604;2023-12-14T19:50:13;101220.58;;;2.48;88.67
40794;BME280;26502;51.886;15.604;2023-12-14T19:55:39;101237.06;;;2.49;88.55
40794;BME280;26502;51.886;15.604;2023-12-14T20:01:15;101254.96;;;2.50;88.44
40794;BME280;26502;51.886;15.604;2023-12-14T20:06:42;101262.84;;;2.48;88.19
40794;BME280;26502;51.886;15.604;2023-12-14T20:12:09;101275.17;;;2.22;87.51
40794;BME280;26502;51.886;15.604;2023-12-14T20:17:35;101288.48;;;2.21;87.86
40794;BME280;26502;51.886;15.604;2023-12-14T20:23:01;101297.44;;;2.23;88.09
40794;BME280;26502;51.886;15.604;2023-12-14T20:28:31;101309.73;;;2.23;87.98
40794;BME280;26502;51.886;15.604;2023-12-14T20:33:57;101324.02;;;2.17;87.79
40794;BME280;26502;51.886;15.604;2023-12-14T20:39:25;101337.16;;;2.03;87.50
40794;BME280;26502;51.886;15.604;2023-12-14T20:44:51;101345.25;;;1.94;87.65
40794;BME280;26502;51.886;15.604;2023-12-14T20:50:18;101349.88;;;1.99;88.09
40794;BME280;26502;51.886;15.604;2023-12-14T20:55:44;101357.79;;;2.01;88.02
40794;BME280;26502;51.886;15.604;2023-12-14T21:01:11;101369.02;;;2.01;87.98
40794;BME280;26502;51.886;15.604;2023-12-14T21:06:38;101371.81;;;2.01;88.02
40794;BME280;26502;51.886;15.604;2023-12-14T21:12:06;101375.63;;;1.99;87.94
40794;BME280;26502;51.886;15.604;2023-12-14T21:17:33;101383.66;;;1.98;88.04
40794;BME280;26502;51.886;15.604;2023-12-14T21:23:00;101390.33;;;1.98;87.96
40794;BME280;26502;51.886;15.604;2023-12-14T21:28:29;101388.52;;;1.94;88.04
40794;BME280;26502;51.886;15.604;2023-12-14T21:33:56;101389.48;;;1.88;87.95
40794;BME280;26502;51.886;15.604;2023-12-14T21:39:22;101391.18;;;1.83;88.01
40794;BME280;26502;51.886;15.604;2023-12-14T21:44:59;101393.05;;;1.80;87.91
40794;BME280;26502;51.886;15.604;2023-12-14T21:50:28;101396.72;;;1.79;87.87
40794;BME280;26502;51.886;15.604;2023-12-14T21:55:54;101401.95;;;1.77;87.95
40794;BME280;26502;51.886;15.604;2023-12-14T22:01:21;101407.71;;;1.77;87.87
40794;BME280;26502;51.886;15.604;2023-12-14T22:06:47;101418.72;;;1.75;87.87
40794;BME280;26502;51.886;15.604;2023-12-14T22:12:14;101439.37;;;1.75;87.80
40794;BME280;26502;51.886;15.604;2023-12-14T22:17:41;101446.58;;;1.77;87.83
40794;BME280;26502;51.886;15.604;2023-12-14T22:23:08;101451.42;;;1.71;87.76
40794;BME280;26502;51.886;15.604;2023-12-14T22:28:35;101462.66;;;1.53;87.07
40794;BME280;26502;51.886;15.604;2023-12-14T22:34:01;101464.08;;;1.33;87.23
40794;BME280;26502;51.886;15.604;2023-12-14T22:39:27;101466.31;;;1.41;87.74
40794;BME280;26502;51.886;15.604;2023-12-14T22:44:53;101470.04;;;1.44;87.76
40794;BME280;26502;51.886;15.604;2023-12-14T22:50:19;101473.59;;;1.47;87.60
40794;BME280;26502;51.886;15.604;2023-12-14T22:55:46;101480.14;;;1.51;87.72
40794;BME280;26502;51.886;15.604;2023-12-14T23:01:13;101483.64;;;1.52;87.58
40794;BME280;26502;51.886;15.604;2023-12-14T23:06:39;101491.77;;;1.46;87.27
40794;BME280;26502;51.886;15.604;2023-12-14T23:12:06;101500.17;;;1.27;86.91
40794;BME280;26502;51.886;15.604;2023-12-14T23:17:33;101507.73;;;1.28;87.41
40794;BME280;26502;51.886;15.604;2023-12-14T23:22:59;101518.96;;;1.30;87.29
40794;BME280;26502;51.886;15.604;2023-12-14T23:28:26;101518.80;;;1.30;87.64
40794;BME280;26502;51.886;15.604;2023-12-14T23:33:52;101519.80;;;1.29;87.41
40794;BME280;26502;51.886;15.604;2023-12-14T23:39:19;101519.91;;;1.15;87.16
40794;BME280;26502;51.886;15.604;2023-12-14T23:44:45;101525.73;;;1.01;87.04
40794;BME280;26502;51.886;15.604;2023-12-14T23:50:12;101537.02;;;0.88;87.02
40794;BME280;26502;51.886;15.604;2023-12-14T23:55:38;101542.65;;;0.90;87.42
